EW2134 Weather Reports


Display with metric or nautical units.
time (UTC)temp
F
wind
direction
speed
MPH
gust
MPH
rain 1hr
in
rain 24hr
in
rain mn
in
humidity
%
barometer
mb
20180923100343 38 336 0.0 0.0 0.00 0.24 0.00 87 1022.6
20180923094853 39 336 0.0 0.0 0.00 0.71 0.00 87 1022.4
20180923093359 39 336 0.0 0.0 0.00 0.71 0.00 87 1022.5
20180923091844 39 336 0.0 0.0 0.00 0.71 0.00 86 1022.4
20180923090356 39 336 0.0 2.0 0.00 0.71 0.00 85 1022.3
20180923084902 40 336 0.0 2.0 0.00 0.83 0.00 85 1022.2
20180923083348 40 337 3.0 5.0 0.00 0.83 0.00 86 1022.2
20180923081858 38 308 2.0 5.0 0.00 0.83 0.00 87 1022.3
20180923080343 38 327 0.0 0.0 0.00 0.83 0.00 84 1022.3
20180923074849 41 327 2.0 4.0 0.00 0.83 0.00 81 1022.2
20180923073401 42 329 3.0 5.0 0.00 0.83 0.00 81 1022.1
20180923071847 42 317 2.0 4.0 0.00 0.83 0.00 83 1022.2
20180923070354 42 294 4.0 5.0 0.00 0.83 0.00 83 1021.9
20180923064843 41 313 0.0 1.0 0.00 0.83 0.00 82 1021.8
20180923063351 42 313 2.0 3.0 0.00 0.83 0.00 80 1021.8
20180923061858 43 313 2.0 4.0 0.00 0.83 0.00 81 1021.8
20180923060349 43 311 3.0 4.0 0.00 0.83 0.00 81 1021.8
20180923054855 43 310 4.0 5.0 0.00 0.83 0.00 82 1021.8
20180923053402 43 325 3.0 4.0 0.00 0.83 0.00 83 1021.8
20180923051851 43 325 2.0 3.0 0.00 0.83 0.00 83 1021.6
20180923050358 43 325 2.0 3.0 0.00 0.83 0.00 84 1021.4
20180923044846 43 325 2.0 3.0 0.00 0.83 0.00 85 1021.4
20180923043356 43 325 0.0 0.0 0.00 0.83 0.00 84 1021.3
20180923041902 44 325 0.0 1.0 0.00 0.83 0.00 82 1021.2
20180923040350 45 325 0.0 0.0 0.00 0.83 0.00 81 1021.2
20180923034854 46 325 1.0 3.0 0.00 0.83 0.00 79 1021.1
20180923031850 46 309 3.0 6.0 0.00 0.83 0.00 78 1020.7
20180923030358 47 329 3.0 4.0 0.00 0.83 0.00 78 1020.7
20180923024848 47 310 2.0 5.0 0.00 0.83 0.17 77 1020.5
20180923023356 47 326 4.0 5.0 0.00 0.83 0.17 77 1020.2
20180923021901 48 308 4.0 6.0 0.00 0.83 0.17 76 1020.1
20180923014848 48 315 5.0 10.0 0.00 0.83 0.17 80 1019.8
20180923013355 46 327 4.0 7.0 0.00 0.83 0.17 84 1019.5
20180923011844 45 355 2.0 3.0 0.00 0.83 0.17 85 1019.5
20180923010351 45 355 2.0 5.0 0.00 0.83 0.17 85 1019.3
20180923004939 45 355 2.0 3.0 0.00 0.83 0.17 86 1019.0
20180923003345 45 355 0.0 0.0 0.00 0.83 0.17 83 1018.9
20180923001900 46 355 0.0 2.0 0.00 0.83 0.17 82 1018.8
20180923000400 46 355 3.0 4.0 0.00 0.83 0.17 82 1018.4
20180922234858 47 355 0.0 0.0 0.00 0.83 0.17 80 1018.3
20180922233403 48 355 0.0 2.0 0.00 0.83 0.17 76 1018.0
20180922231859 49 355 2.0 3.0 0.00 0.83 0.17 74 1017.5
20180922230400 50 355 0.0 0.0 0.00 0.83 0.17 72 1017.3
20180922224902 51 355 2.0 3.0 0.00 0.83 0.17 70 1017.0
20180922223402 52 355 0.0 0.0 0.00 0.83 0.17 67 1016.9
20180922221858 53 355 0.0 0.0 0.00 0.83 0.17 65 1016.7
20180922214854 56 355 1.0 7.0 0.00 0.83 0.17 58 1016.5
20180922213356 57 317 2.0 6.0 0.00 0.83 0.17 55 1016.1
20180922211852 58 304 6.0 11.0 0.00 0.83 0.17 51 1015.8
20180922210357 59 307 7.0 13.0 0.00 0.83 0.17 52 1015.4
20180922204852 59 297 7.0 10.0 0.00 0.83 0.17 52 1015.2
20180922203353 60 296 4.0 12.0 0.00 0.83 0.17 53 1015.0
20180922201854 61 310 6.0 16.0 0.00 0.83 0.17 51 1014.7
20180922200355 61 317 10.0 17.0 0.00 0.83 0.17 49 1014.2
20180922194853 61 285 9.0 14.0 0.00 0.83 0.17 51 1014.0
20180922193353 61 13 7.0 17.0 0.00 0.83 0.17 52 1014.0
20180922191854 61 345 11.0 18.0 0.00 0.83 0.17 50 1013.7
20180922190354 62 355 8.0 19.0 0.00 0.83 0.17 53 1013.4
20180922184851 62 336 10.0 18.0 0.00 0.83 0.17 53 1013.1
20180922183356 62 338 7.0 20.0 0.00 0.83 0.17 56 1012.9
20180922181852 62 292 11.0 26.0 0.00 0.83 0.17 55 1012.3
20180922180434 63 289 11.0 21.0 0.00 0.83 0.17 53 1012.1
20180922174846 63 286 10.0 20.0 0.00 0.83 0.17 56 1011.7
20180922171851 63 308 11.0 27.0 0.00 0.83 0.17 53 1011.0
20180922170353 63 302 18.0 30.0 0.00 0.83 0.17 53 1010.6
20180922164850 64 329 13.0 27.0 0.00 0.83 0.17 56 1010.1
20180922163355 64 319 15.0 29.0 0.00 0.83 0.17 58 1010.0
20180922161853 65 290 13.0 26.0 0.00 0.83 0.17 58 1009.5
20180922160355 65 312 15.0 22.0 0.00 0.83 0.17 63 1009.4
20180922154855 66 265 11.0 24.0 0.00 0.83 0.17 63 1008.5
20180922153356 65 278 17.0 32.0 0.00 0.83 0.17 62 1008.2
20180922151853 67 304 11.0 27.0 0.00 0.83 0.17 73 1007.6
20180922150358 67 310 12.0 30.0 0.04 0.83 0.17 75 1007.0
20180922144855 66 311 14.0 27.0 0.08 0.83 0.17 81 1006.6
20180922143357 64 268 9.0 24.0 0.08 0.83 0.17 88 1006.6
20180922141854 64 268 9.0 27.0 0.08 0.83 0.17 88 1006.3
20180922140359 64 273 8.0 23.0 0.04 0.79 0.16 87 1005.9
20180922134845 65 254 12.0 22.0 0.00 0.75 0.15 87 1005.4
20180922133353 64 252 12.0 26.0 0.00 0.75 0.15 87 1005.0
20180922131940 65 252 10.0 21.0 0.00 0.75 0.15 86 1005.3
20180922130346 64 272 13.0 28.0 0.00 0.75 0.15 85 1005.1
20180922124853 64 236 13.0 26.0 0.00 0.75 0.15 83 1004.9
20180922123346 63 287 13.0 23.0 0.00 0.75 0.15 82 1004.6
20180922121854 63 194 11.0 24.0 0.00 0.75 0.15 81 1004.4
20180922120341 62 225 7.0 20.0 0.04 0.75 0.15 81 1004.5
20180922114851 62 224 6.0 22.0 0.04 0.75 0.15 81 1004.5
20180922113359 62 254 7.0 18.0 0.04 0.75 0.15 81 1004.5
20180922111845 62 200 5.0 22.0 0.04 0.75 0.15 82 1004.8
20180922110358 62 248 4.0 16.0 0.08 0.71 0.14 82 1004.6
20180922104843 62 241 6.0 19.0 0.12 0.71 0.14 82 1004.2
20180922103351 62 209 6.0 16.0 0.16 0.71 0.14 83 1004.7
20180922101902 62 254 4.0 22.0 0.35 0.71 0.14 83 1004.9